Time;durP1;ratioP1;P1;durP2;ratioP2;P2;SDS_P1;SDS_P2;PMS_P1;PMS_P2;Temp;Humidity;BMP_temperature;BMP_pressure;BME280_temperature;BME280_humidity;BME280_pressure;Samples;Min_cycle;Max_cycle;Signal;HPM_P1;HPM_P2
2022/11/17 00:01:18;;;;;;;4.57;1.85;;;13.70;60.70;;;;;;5078787;28;21146;-49
2022/11/17 00:03:47;;;;;;;5.47;1.35;;;13.70;60.70;;;;;;5084800;28;20056;-52
2022/11/17 00:06:15;;;;;;;7.22;1.70;;;13.70;60.70;;;;;;5062667;28;20067;-51
2022/11/17 00:08:43;;;;;;;6.15;1.55;;;13.80;60.80;;;;;;5061241;28;20048;-51
2022/11/17 00:11:10;;;;;;;6.20;1.90;;;13.80;60.80;;;;;;5059106;28;20420;-52
2022/11/17 00:16:20;;;;;;;4.15;1.80;;;13.80;60.80;;;;;;5030613;28;20056;-51
2022/11/17 00:21:34;;;;;;;7.68;2.60;;;13.80;60.70;;;;;;5060355;28;20063;-51
2022/11/17 00:24:02;;;;;;;5.55;1.80;;;13.80;60.60;;;;;;5063961;28;20053;-50
2022/11/17 00:26:31;;;;;;;4.03;1.70;;;13.80;60.70;;;;;;5066163;28;20056;-50
2022/11/17 00:29:00;;;;;;;5.50;1.90;;;13.80;60.70;;;;;;5066006;28;20048;-46
2022/11/17 00:34:17;;;;;;;7.70;1.92;;;13.80;60.60;;;;;;5071359;28;20055;-50
2022/11/17 00:36:46;;;;;;;8.02;2.40;;;13.80;60.60;;;;;;5066270;28;20056;-48
2022/11/17 00:39:14;;;;;;;7.93;2.10;;;13.80;60.60;;;;;;5064508;28;20052;-53
2022/11/17 00:41:42;;;;;;;8.32;2.00;;;13.80;60.60;;;;;;5064516;28;20057;-53
2022/11/17 00:44:09;;;;;;;7.07;2.13;;;13.80;60.70;;;;;;5064942;28;20048;-53
2022/11/17 00:46:38;;;;;;;7.53;2.15;;;13.70;60.60;;;;;;5063890;28;20057;-54
2022/11/17 00:49:06;;;;;;;7.25;2.03;;;13.70;60.60;;;;;;5066152;28;20048;-51
2022/11/17 00:51:35;;;;;;;6.80;1.77;;;13.80;60.60;;;;;;5061613;28;20052;-52
2022/11/17 00:54:03;;;;;;;7.80;1.90;;;13.80;60.70;;;;;;5064308;28;20061;-53
2022/11/17 00:56:31;;;;;;;8.38;2.20;;;13.80;61.30;;;;;;5062780;28;21562;-54
2022/11/17 00:58:58;;;;;;;7.00;2.25;;;13.80;60.40;;;;;;5067281;28;20056;-48
2022/11/17 01:01:25;;;;;;;6.50;2.38;;;13.80;60.40;;;;;;5062406;28;20083;-54
2022/11/17 01:04:01;;;;;;;8.82;2.35;;;13.80;60.50;;;;;;5068191;28;20063;-52
2022/11/17 01:06:30;;;;;;;6.45;2.33;;;13.80;60.50;;;;;;5085928;28;20048;-50
2022/11/17 01:09:00;;;;;;;6.00;2.15;;;13.70;60.40;;;;;;5083774;28;20056;-52
2022/11/17 01:11:27;;;;;;;6.78;1.92;;;13.70;60.40;;;;;;5082405;28;20052;-52
2022/11/17 01:13:56;;;;;;;6.75;2.00;;;13.70;60.40;;;;;;5084629;28;20052;-50
2022/11/17 01:16:25;;;;;;;13.05;2.65;;;13.70;60.50;;;;;;5084546;28;20059;-52
2022/11/17 01:18:52;;;;;;;8.38;1.85;;;13.80;60.70;;;;;;5085514;28;20052;-51
2022/11/17 01:21:22;;;;;;;7.28;2.03;;;13.70;60.50;;;;;;5080739;28;20055;-53
2022/11/17 01:23:51;;;;;;;5.10;1.95;;;13.80;60.60;;;;;;5084516;28;20051;-50
2022/11/17 01:26:23;;;;;;;4.30;1.80;;;13.80;60.60;;;;;;5085448;28;20048;-52
2022/11/17 01:28:51;;;;;;;8.23;1.63;;;13.80;60.60;;;;;;5088290;28;20056;-50
2022/11/17 01:31:20;;;;;;;4.88;1.63;;;13.80;60.60;;;;;;5087289;28;20052;-51
2022/11/17 01:33:48;;;;;;;8.70;1.90;;;13.70;60.50;;;;;;5090341;28;20059;-53
2022/11/17 01:36:18;;;;;;;6.90;1.95;;;13.80;60.70;;;;;;5088354;28;20427;-53
2022/11/17 01:38:45;;;;;;;4.82;1.77;;;13.70;60.60;;;;;;5086406;28;20380;-52
2022/11/17 01:41:15;;;;;;;8.77;2.10;;;13.80;60.60;;;;;;5087655;28;20071;-50
2022/11/17 01:43:47;;;;;;;5.10;1.75;;;13.80;60.60;;;;;;5093675;28;20052;-50
2022/11/17 01:46:31;;;;;;;5.45;1.88;;;13.70;60.50;;;;;;5090861;28;20055;-48
2022/11/17 01:49:02;;;;;;;4.35;1.50;;;13.70;60.50;;;;;;5093158;28;20048;-49
2022/11/17 01:51:31;;;;;;;5.88;1.80;;;13.70;60.50;;;;;;5089855;28;20048;-50
2022/11/17 01:53:59;;;;;;;7.78;1.80;;;13.70;60.60;;;;;;5093397;28;20134;-53
2022/11/17 01:56:31;;;;;;;9.75;2.33;;;13.70;60.60;;;;;;5094487;28;20055;-48
2022/11/17 01:59:07;;;;;;;4.45;1.98;;;13.70;60.70;;;;;;5092184;28;20067;-47
2022/11/17 02:01:54;;;;;;;7.05;2.65;;;13.70;60.90;;;;;;5086093;28;20047;-52
2022/11/17 02:04:23;;;;;;;10.73;2.33;;;13.70;60.80;;;;;;5092531;28;20420;-51
2022/11/17 02:06:55;;;;;;;7.82;1.90;;;13.70;60.90;;;;;;5089889;28;20110;-51
2022/11/17 02:09:23;;;;;;;5.60;1.50;;;13.70;61.00;;;;;;5089583;28;20409;-52
2022/11/17 02:11:50;;;;;;;5.43;1.83;;;13.70;61.00;;;;;;5087501;28;20056;-49
2022/11/17 02:14:19;;;;;;;4.53;1.67;;;13.70;61.20;;;;;;5094124;28;20056;-48
2022/11/17 02:16:46;;;;;;;4.63;2.08;;;13.60;61.10;;;;;;5093600;28;20052;-51
2022/11/17 02:19:16;;;;;;;4.07;1.88;;;13.70;61.30;;;;;;5094679;28;20056;-53
2022/11/17 02:22:20;;;;;;;6.28;2.10;;;13.60;61.40;;;;;;5090234;28;20056;-50
2022/11/17 02:25:12;;;;;;;4.20;1.83;;;13.60;61.60;;;;;;5088986;28;20063;-52
2022/11/17 02:27:52;;;;;;;3.03;1.42;;;13.60;61.60;;;;;;5087761;28;20048;-50
2022/11/17 02:30:22;;;;;;;3.70;1.60;;;13.60;61.60;;;;;;5083822;28;20056;-49
2022/11/17 02:33:01;;;;;;;2.50;1.25;;;13.60;61.80;;;;;;5090623;28;20063;-49
2022/11/17 02:35:40;;;;;;;4.97;1.30;;;13.60;61.80;;;;;;5092723;28;20063;-52
2022/11/17 02:38:17;;;;;;;4.43;1.25;;;13.60;62.00;;;;;;5087103;28;20495;-52
2022/11/17 02:40:48;;;;;;;3.75;1.08;;;13.60;62.10;;;;;;5089583;28;20043;-48
2022/11/17 02:46:09;;;;;;;6.45;1.48;;;13.60;62.10;;;;;;5097049;28;21069;-52
2022/11/17 02:48:38;;;;;;;3.30;0.88;;;13.60;62.20;;;;;;5091365;28;20059;-50
2022/11/17 02:51:10;;;;;;;2.60;0.80;;;13.60;62.40;;;;;;5087435;28;20048;-48
2022/11/17 02:53:39;;;;;;;2.30;0.73;;;13.60;62.30;;;;;;5089314;28;20048;-53
2022/11/17 02:56:07;;;;;;;5.00;0.80;;;13.60;62.30;;;;;;5089594;28;20055;-51
2022/11/17 02:58:36;;;;;;;2.05;0.80;;;13.60;62.40;;;;;;5091611;28;21059;-53
2022/11/17 03:01:19;;;;;;;3.08;0.80;;;13.60;62.40;;;;;;5087200;28;20055;-52
2022/11/17 03:04:04;;;;;;;3.15;0.80;;;13.60;62.40;;;;;;5090130;28;20048;-50
2022/11/17 03:06:41;;;;;;;3.17;0.93;;;13.60;62.40;;;;;;5086597;28;20048;-54
2022/11/17 03:09:15;;;;;;;2.42;0.60;;;13.70;62.40;;;;;;5087100;28;20048;-50
2022/11/17 03:11:44;;;;;;;;;;;13.60;62.40;;;;;;5087652;28;20051;-52
2022/11/17 03:14:20;;;;;;;1.60;0.80;;;13.70;62.40;;;;;;5088988;28;19920;-53
2022/11/17 03:16:55;;;;;;;2.35;0.80;;;13.70;62.20;;;;;;5087451;28;20060;-45
2022/11/17 03:19:28;;;;;;;2.45;0.80;;;13.70;62.20;;;;;;5085635;28;20052;-45
2022/11/17 03:22:03;;;;;;;2.30;0.70;;;13.70;62.40;;;;;;5081697;28;20048;-43
2022/11/17 03:24:32;;;;;;;2.53;0.93;;;13.70;62.40;;;;;;5084388;28;20059;-44
2022/11/17 03:27:05;;;;;;;4.70;0.90;;;13.60;62.40;;;;;;5085583;28;20059;-44
2022/11/17 03:29:36;;;;;;;2.33;0.95;;;13.60;62.60;;;;;;5082036;28;20062;-49
2022/11/17 03:32:07;;;;;;;8.60;1.25;;;13.60;62.60;;;;;;5080484;28;20063;-45
2022/11/17 03:34:38;;;;;;;3.60;1.52;;;13.70;62.70;;;;;;5083506;28;20060;-43
2022/11/17 03:37:09;;;;;;;1.95;0.90;;;13.60;62.60;;;;;;5085426;28;20044;-52
2022/11/17 03:39:38;;;;;;;4.55;0.88;;;13.60;62.50;;;;;;5084463;28;20059;-54
2022/11/17 03:42:08;;;;;;;1.63;0.85;;;13.70;62.50;;;;;;5084961;28;20056;-52
2022/11/17 03:44:41;;;;;;;1.63;0.60;;;13.60;62.40;;;;;;5087455;28;20059;-54
2022/11/17 03:47:10;;;;;;;2.33;0.85;;;13.70;62.40;;;;;;5084569;28;20488;-56
2022/11/17 03:49:40;;;;;;;4.13;1.00;;;13.70;62.40;;;;;;5085770;28;20052;-53
2022/11/17 03:52:08;;;;;;;0.95;0.70;;;13.70;62.40;;;;;;5082023;28;20523;-54
2022/11/17 03:54:36;;;;;;;3.40;0.80;;;13.70;62.40;;;;;;5085969;28;20058;-54
2022/11/17 03:57:10;;;;;;;2.00;0.80;;;13.70;62.40;;;;;;5084898;28;20070;-54
2022/11/17 03:59:46;;;;;;;1.50;0.80;;;13.70;62.30;;;;;;5083380;28;20051;-52
2022/11/17 04:02:14;;;;;;;5.70;1.02;;;13.70;62.10;;;;;;5083121;28;20047;-53
2022/11/17 04:07:38;;;;;;;2.70;0.90;;;13.70;62.00;;;;;;5043664;28;21601;-52
2022/11/17 04:10:08;;;;;;;3.17;0.80;;;13.70;61.90;;;;;;5082255;28;20063;-50
2022/11/17 04:18:06;;;;;;;5.15;1.13;;;13.80;62.20;;;;;;5065402;28;20050;-54
2022/11/17 04:20:35;;;;;;;1.73;0.90;;;13.70;61.20;;;;;;5082723;28;20052;-54
2022/11/17 04:23:10;;;;;;;3.35;0.95;;;13.70;61.30;;;;;;5081898;28;20051;-53
2022/11/17 04:28:36;;;;;;;4.32;1.00;;;13.70;60.90;;;;;;5091198;28;20302;-54
2022/11/17 04:31:07;;;;;;;3.10;1.00;;;13.70;60.80;;;;;;5083918;28;20060;-54
2022/11/17 04:33:35;;;;;;;1.83;0.90;;;13.70;60.80;;;;;;5083726;28;20945;-55
2022/11/17 04:36:03;;;;;;;4.97;1.10;;;13.70;60.80;;;;;;5084499;28;20532;-55
2022/11/17 04:38:30;;;;;;;1.88;0.80;;;13.60;61.50;;;;;;5084947;28;20062;-51
2022/11/17 04:43:47;;;;;;;3.42;0.90;;;13.60;61.00;;;;;;5084086;28;20071;-54
2022/11/17 04:46:16;;;;;;;3.35;0.95;;;13.60;61.10;;;;;;5081918;28;20060;-53
2022/11/17 04:48:43;;;;;;;1.55;0.98;;;13.60;61.30;;;;;;5083428;28;20059;-57
2022/11/17 04:51:11;;;;;;;8.93;4.03;;;13.60;61.40;;;;;;5078198;28;20044;-54
2022/11/17 04:53:38;;;;;;;25.63;11.02;;;13.60;61.60;;;;;;5079688;28;20542;-54
2022/11/17 04:56:06;;;;;;;6.93;3.05;;;13.60;61.70;;;;;;5081258;28;20066;-44
2022/11/17 04:58:35;;;;;;;8.07;1.83;;;13.60;61.80;;;;;;5083425;28;20135;-45
2022/11/17 05:01:12;;;;;;;1.50;0.82;;;13.60;61.70;;;;;;5077932;28;20052;-50
2022/11/17 05:03:43;;;;;;;5.00;1.98;;;13.60;61.60;;;;;;5082938;28;20055;-45
2022/11/17 05:06:12;;;;;;;3.75;1.23;;;13.60;61.70;;;;;;5080460;28;20048;-45
2022/11/17 05:08:40;;;;;;;2.17;1.10;;;13.60;61.70;;;;;;5081035;28;20487;-42
2022/11/17 05:13:54;;;;;;;4.28;1.38;;;13.60;61.70;;;;;;5086671;28;20054;-44
2022/11/17 05:19:19;;;;;;;1.60;1.10;;;13.60;62.40;;;;;;5022573;28;20051;-45
2022/11/17 05:21:46;;;;;;;9.15;1.48;;;13.60;61.60;;;;;;5079086;28;20903;-49
2022/11/17 05:24:13;;;;;;;2.65;1.08;;;13.60;61.50;;;;;;5081673;28;20056;-45
2022/11/17 05:26:42;;;;;;;4.43;1.20;;;13.60;61.50;;;;;;5082384;28;20056;-48
2022/11/17 05:29:14;;;;;;;4.60;1.30;;;13.60;61.50;;;;;;5080322;28;20052;-47
2022/11/17 05:31:41;;;;;;;22.30;10.85;;;13.60;61.50;;;;;;5069330;28;21820;-48
2022/11/17 05:34:11;;;;;;;11.65;4.05;;;13.60;61.60;;;;;;5080101;28;20411;-46
2022/11/17 05:36:40;;;;;;;5.22;2.17;;;13.60;61.60;;;;;;5082036;28;20044;-43
2022/11/17 05:39:09;;;;;;;5.70;1.67;;;13.60;61.60;;;;;;5080244;28;20062;-44
2022/11/17 05:41:37;;;;;;;3.92;1.52;;;13.60;61.60;;;;;;5080460;28;20078;-44
2022/11/17 05:44:04;;;;;;;7.68;1.77;;;13.60;61.60;;;;;;5079965;28;20059;-43
2022/11/17 05:46:32;;;;;;;2.45;1.13;;;13.60;61.50;;;;;;5081488;28;20056;-45
2022/11/17 05:48:59;;;;;;;3.30;1.38;;;13.60;61.50;;;;;;5080285;28;20052;-45
2022/11/17 05:51:27;;;;;;;5.72;1.27;;;13.60;61.50;;;;;;5078865;28;20051;-48
2022/11/17 05:53:55;;;;;;;3.90;1.20;;;13.60;61.40;;;;;;5080362;28;20487;-46
2022/11/17 05:56:35;;;;;;;4.63;1.48;;;13.60;61.40;;;;;;5082208;28;20063;-48
2022/11/17 05:59:17;;;;;;;2.95;1.27;;;13.60;61.40;;;;;;5080392;28;20164;-47
2022/11/17 06:01:48;;;;;;;3.08;1.33;;;13.70;61.40;;;;;;5075724;28;20063;-45
2022/11/17 06:04:19;;;;;;;13.20;5.35;;;13.60;61.10;;;;;;5071849;28;20049;-47
2022/11/17 06:06:47;;;;;;;6.47;2.00;;;13.70;61.30;;;;;;5044679;28;20059;-43
2022/11/17 06:09:16;;;;;;;6.10;1.48;;;13.70;61.30;;;;;;5060601;28;20496;-45
2022/11/17 06:11:44;;;;;;;2.92;1.20;;;13.70;61.20;;;;;;5058265;28;20606;-44
2022/11/17 06:14:11;;;;;;;3.42;1.30;;;13.70;61.20;;;;;;5058952;28;20058;-46
2022/11/17 06:16:43;;;;;;;6.05;1.40;;;13.70;61.20;;;;;;5057097;28;20064;-45
2022/11/17 06:19:15;;;;;;;4.30;1.20;;;13.70;61.20;;;;;;5056509;28;20055;-45
2022/11/17 06:21:42;;;;;;;5.22;1.17;;;13.80;61.10;;;;;;5056436;28;20511;-46
2022/11/17 06:24:10;;;;;;;10.18;1.40;;;13.80;61.00;;;;;;5059718;28;20049;-47
2022/11/17 06:26:40;;;;;;;4.63;1.00;;;13.80;61.00;;;;;;5061458;28;20071;-45
2022/11/17 06:29:09;;;;;;;5.82;1.15;;;13.80;61.00;;;;;;5059492;28;20048;-43
2022/11/17 06:31:38;;;;;;;5.15;1.20;;;13.80;61.00;;;;;;5058670;28;20385;-45
2022/11/17 06:34:06;;;;;;;3.33;1.00;;;13.80;61.00;;;;;;5059980;28;20048;-45
2022/11/17 06:36:33;;;;;;;5.05;1.50;;;13.80;61.00;;;;;;5063327;28;20048;-41
2022/11/17 06:39:01;;;;;;;4.53;1.25;;;13.80;61.20;;;;;;5063746;28;20052;-42
2022/11/17 06:41:28;;;;;;;4.95;1.10;;;13.80;61.20;;;;;;5062687;28;20059;-47
2022/11/17 06:43:56;;;;;;;4.68;0.93;;;13.90;61.30;;;;;;5058421;28;20404;-47
2022/11/17 06:46:24;;;;;;;2.35;0.77;;;13.90;61.50;;;;;;5060888;28;20052;-47
2022/11/17 06:48:54;;;;;;;1.98;0.70;;;13.90;61.60;;;;;;5057376;28;20052;-47
2022/11/17 06:51:21;;;;;;;3.85;1.00;;;13.90;61.60;;;;;;5058358;28;20405;-44
2022/11/17 06:53:48;;;;;;;4.35;1.00;;;13.90;61.60;;;;;;5061868;28;20056;-45
2022/11/17 06:56:17;;;;;;;4.35;0.98;;;13.90;61.60;;;;;;5063259;28;20489;-43
2022/11/17 06:58:44;;;;;;;6.55;1.00;;;13.90;61.70;;;;;;5056382;28;20059;-44
2022/11/17 07:01:14;;;;;;;4.03;1.20;;;13.90;61.70;;;;;;5054455;28;20739;-45
2022/11/17 07:03:42;;;;;;;3.10;1.20;;;13.90;61.60;;;;;;5058868;28;20461;-45
2022/11/17 07:06:11;;;;;;;4.50;1.35;;;13.90;61.60;;;;;;5084039;28;20071;-43
2022/11/17 07:08:38;;;;;;;2.92;1.00;;;13.90;61.60;;;;;;5079296;28;20512;-46
2022/11/17 07:11:07;;;;;;;6.15;1.35;;;13.90;61.70;;;;;;5080644;28;20052;-42
2022/11/17 07:13:35;;;;;;;4.07;1.13;;;13.90;61.70;;;;;;5084792;28;20059;-42
2022/11/17 07:16:03;;;;;;;2.08;0.82;;;13.90;61.70;;;;;;5079390;28;20056;-47
2022/11/17 07:18:33;;;;;;;2.75;1.10;;;13.90;61.60;;;;;;5083420;28;20056;-46
2022/11/17 07:21:02;;;;;;;3.33;1.00;;;13.90;61.70;;;;;;5079368;28;20054;-48
2022/11/17 07:23:30;;;;;;;3.97;1.00;;;13.90;61.70;;;;;;5079740;28;20048;-45
2022/11/17 07:25:57;;;;;;;3.45;0.85;;;13.90;61.70;;;;;;5084073;28;20067;-47
2022/11/17 07:28:24;;;;;;;2.75;0.75;;;13.90;61.70;;;;;;5082221;28;20048;-47
2022/11/17 07:30:52;;;;;;;4.53;0.68;;;13.90;61.70;;;;;;5080744;28;20048;-46
2022/11/17 07:33:19;;;;;;;7.38;1.05;;;14.00;61.60;;;;;;5073921;28;20059;-46
2022/11/17 07:35:48;;;;;;;2.72;0.70;;;14.00;61.70;;;;;;5084825;28;20059;-46
2022/11/17 07:38:15;;;;;;;4.78;0.73;;;14.00;61.80;;;;;;5080300;28;20059;-46
2022/11/17 07:40:45;;;;;;;26.05;11.15;;;14.00;61.80;;;;;;5078744;28;20504;-46
2022/11/17 07:43:13;;;;;;;10.38;4.95;;;14.00;61.80;;;;;;5081409;28;20059;-45
2022/11/17 07:45:40;;;;;;;4.20;1.70;;;14.00;61.90;;;;;;5083782;28;20051;-43
2022/11/17 07:48:07;;;;;;;5.10;1.30;;;14.00;61.90;;;;;;5085072;28;20492;-48
2022/11/17 07:50:35;;;;;;;3.03;0.90;;;14.00;61.90;;;;;;5072135;28;20056;-49
2022/11/17 07:53:04;;;;;;;4.78;0.98;;;14.00;61.90;;;;;;5068371;28;20048;-45
2022/11/17 07:55:31;;;;;;;2.08;0.82;;;14.10;62.00;;;;;;5080898;28;20379;-50
2022/11/17 07:58:00;;;;;;;3.13;1.13;;;14.10;61.90;;;;;;5082344;28;20043;-47
2022/11/17 08:00:29;;;;;;;2.30;0.88;;;14.10;61.90;;;;;;5077398;28;20052;-48
2022/11/17 08:03:00;;;;;;;5.07;0.88;;;14.10;62.00;;;;;;5077979;28;20415;-46
2022/11/17 08:05:29;;;;;;;5.60;0.90;;;14.10;62.00;;;;;;5079473;28;20052;-54
2022/11/17 08:07:57;;;;;;;5.68;1.42;;;14.20;62.10;;;;;;5081251;28;20051;-51
2022/11/17 08:10:27;;;;;;;3.65;0.80;;;14.20;62.10;;;;;;5080018;28;20068;-48
2022/11/17 08:12:54;;;;;;;8.43;1.08;;;14.20;62.10;;;;;;5082140;28;20052;-46
2022/11/17 08:15:21;;;;;;;5.03;1.20;;;14.10;62.00;;;;;;5081433;28;20051;-50
2022/11/17 08:17:53;;;;;;;3.80;1.05;;;14.20;62.10;;;;;;5076200;28;20063;-46
2022/11/17 08:20:20;;;;;;;5.63;0.95;;;14.20;62.10;;;;;;5079351;28;20056;-49
2022/11/17 08:22:49;;;;;;;4.68;0.90;;;14.20;62.10;;;;;;5077007;28;20494;-49
2022/11/17 08:25:17;;;;;;;5.30;1.10;;;14.20;62.10;;;;;;5076305;28;20060;-48
2022/11/17 08:27:47;;;;;;;9.13;1.35;;;14.20;62.20;;;;;;5078439;28;20488;-50
2022/11/17 08:30:17;;;;;;;8.48;0.80;;;14.20;62.10;;;;;;5080329;28;20048;-50
2022/11/17 08:32:48;;;;;;;6.55;1.30;;;14.20;62.10;;;;;;5079404;28;20056;-49
2022/11/17 08:35:16;;;;;;;2.60;0.80;;;14.20;62.20;;;;;;5083931;28;20056;-48
2022/11/17 08:37:43;;;;;;;6.07;1.35;;;14.20;62.10;;;;;;5080857;28;20399;-47
2022/11/17 08:40:14;;;;;;;3.75;0.85;;;14.30;62.20;;;;;;5078442;28;20586;-46
2022/11/17 08:42:42;;;;;;;4.45;0.77;;;14.30;62.20;;;;;;5077077;28;20051;-45
2022/11/17 08:45:11;;;;;;;7.20;1.05;;;14.30;62.20;;;;;;5074631;28;20403;-47
2022/11/17 08:47:39;;;;;;;9.65;0.70;;;14.40;62.40;;;;;;5079612;28;20063;-46
2022/11/17 08:50:08;;;;;;;3.17;0.60;;;14.40;62.30;;;;;;5081014;28;20051;-49
2022/11/17 08:52:35;;;;;;;2.72;0.80;;;14.30;62.30;;;;;;5077348;28;20052;-46
2022/11/17 08:55:04;;;;;;;2.83;0.95;;;14.40;62.30;;;;;;5081057;28;20052;-48
2022/11/17 08:57:32;;;;;;;5.00;1.58;;;14.40;62.40;;;;;;5078797;28;20059;-47
2022/11/17 08:59:59;;;;;;;2.35;0.63;;;14.40;62.30;;;;;;5079744;28;20492;-45
2022/11/17 09:02:28;;;;;;;6.22;2.22;;;14.40;62.20;;;;;;5071300;28;20056;-47
2022/11/17 09:04:55;;;;;;;6.20;1.25;;;14.50;62.30;;;;;;5077489;28;20055;-46
2022/11/17 09:07:23;;;;;;;4.15;0.90;;;14.50;62.20;;;;;;5080475;28;20052;-55
2022/11/17 09:09:50;;;;;;;9.00;1.20;;;14.50;62.20;;;;;;5080799;28;20495;-49
2022/11/17 09:12:17;;;;;;;2.53;0.57;;;14.50;62.00;;;;;;5077707;28;20048;-52
2022/11/17 09:14:44;;;;;;;4.65;0.88;;;14.50;61.70;;;;;;5080530;28;20058;-49
2022/11/17 09:17:14;;;;;;;3.25;0.60;;;14.60;61.50;;;;;;5076250;28;20048;-48
2022/11/17 09:19:42;;;;;;;3.83;0.90;;;14.60;61.20;;;;;;5078832;28;20488;-50
2022/11/17 09:22:09;;;;;;;4.13;0.70;;;14.60;60.90;;;;;;5076346;28;20068;-51
2022/11/17 09:24:37;;;;;;;4.68;0.80;;;14.60;60.80;;;;;;5079810;28;20060;-48
2022/11/17 09:27:04;;;;;;;5.70;0.85;;;14.60;60.70;;;;;;5077720;28;20048;-52
2022/11/17 09:29:31;;;;;;;3.42;1.08;;;14.60;60.60;;;;;;5078937;28;20052;-48
2022/11/17 09:31:58;;;;;;;8.10;2.80;;;14.60;60.40;;;;;;5074099;28;20056;-48
2022/11/17 09:34:28;;;;;;;4.13;1.02;;;14.60;60.10;;;;;;5082220;28;20063;-46
2022/11/17 09:36:56;;;;;;;6.68;1.00;;;14.60;59.90;;;;;;5081875;28;20052;-51
2022/11/17 09:39:23;;;;;;;5.72;0.80;;;14.60;59.80;;;;;;5077960;28;20063;-47
2022/11/17 09:41:53;;;;;;;5.20;1.08;;;14.60;59.70;;;;;;5079833;28;20052;-47
2022/11/17 09:44:33;;;;;;;9.50;1.23;;;14.70;59.70;;;;;;5080661;28;21139;-41
2022/11/17 09:47:07;;;;;;;4.80;1.38;;;14.70;59.60;;;;;;5079946;28;20048;-49
2022/11/17 09:49:43;;;;;;;6.10;1.40;;;14.70;59.60;;;;;;5071661;28;20048;-52
2022/11/17 09:52:18;;;;;;;5.82;1.00;;;14.70;59.30;;;;;;5077100;28;20047;-54
2022/11/17 09:54:52;;;;;;;1.63;0.70;;;14.70;59.10;;;;;;5082208;28;20855;-48
2022/11/17 09:57:25;;;;;;;6.40;0.88;;;14.70;59.00;;;;;;5082935;28;20056;-50
2022/11/17 10:00:01;;;;;;;5.15;1.00;;;14.70;59.00;;;;;;5076214;28;20404;-51
2022/11/17 10:02:28;;;;;;;6.70;1.00;;;14.80;59.00;;;;;;5075964;28;20059;-48
2022/11/17 10:04:55;;;;;;;3.30;0.95;;;14.70;58.80;;;;;;5078893;28;20427;-46
2022/11/17 10:07:24;;;;;;;8.80;1.23;;;14.80;58.60;;;;;;5076578;28;20519;-52
2022/11/17 10:09:55;;;;;;;5.40;1.10;;;14.80;58.00;;;;;;5082299;28;20048;-51
2022/11/17 10:12:26;;;;;;;4.63;1.10;;;14.80;58.00;;;;;;5078107;28;20059;-51
2022/11/17 10:14:54;;;;;;;4.45;0.70;;;14.80;57.90;;;;;;5085769;28;20648;-42
2022/11/17 10:17:21;;;;;;;25.55;2.85;;;14.80;57.90;;;;;;5079924;28;20056;-45
2022/11/17 10:19:48;;;;;;;15.88;2.70;;;14.80;57.70;;;;;;5083816;28;20056;-51
2022/11/17 10:22:36;;;;;;;7.47;1.60;;;14.80;57.50;;;;;;5080456;28;20052;-45
2022/11/17 10:25:04;;;;;;;15.23;2.17;;;14.80;57.20;;;;;;5079568;28;20063;-47
2022/11/17 10:27:33;;;;;;;6.05;2.00;;;14.90;57.30;;;;;;5084046;28;20048;-47
2022/11/17 10:30:02;;;;;;;13.85;2.28;;;14.90;57.20;;;;;;5085899;28;20059;-52
2022/11/17 10:32:32;;;;;;;14.30;2.42;;;14.90;57.30;;;;;;5084641;28;20060;-50
2022/11/17 10:35:16;;;;;;;5.90;1.08;;;14.90;57.00;;;;;;5082586;28;20059;-49
2022/11/17 10:37:54;;;;;;;5.78;1.05;;;14.90;56.80;;;;;;5081686;28;20048;-49
2022/11/17 10:40:23;;;;;;;2.45;0.80;;;14.90;56.70;;;;;;5078780;28;20048;-52
2022/11/17 10:42:58;;;;;;;3.55;0.80;;;15.00;57.10;;;;;;5082372;28;20118;-46
2022/11/17 10:45:26;;;;;;;10.40;1.10;;;15.00;56.50;;;;;;5082610;28;20052;-46
2022/11/17 10:48:09;;;;;;;2.28;0.73;;;15.00;56.60;;;;;;5082517;28;20059;-53
2022/11/17 10:50:36;;;;;;;3.65;0.65;;;15.00;56.50;;;;;;5080700;28;20392;-49
2022/11/17 10:53:23;;;;;;;2.03;0.63;;;15.00;56.60;;;;;;5076193;28;20051;-48
2022/11/17 10:55:56;;;;;;;5.43;1.20;;;15.10;56.40;;;;;;5076683;28;20055;-55
2022/11/17 10:58:25;;;;;;;6.50;2.90;;;15.10;56.50;;;;;;5078690;28;20052;-50
2022/11/17 11:00:55;;;;;;;5.53;2.22;;;15.10;56.50;;;;;;5078250;28;20060;-49
2022/11/17 11:03:24;;;;;;;2.85;1.20;;;15.10;56.40;;;;;;5076802;28;20056;-48
2022/11/17 11:06:03;;;;;;;2.10;0.75;;;15.10;56.90;;;;;;5073728;28;20169;-48
2022/11/17 11:08:49;;;;;;;2.28;0.88;;;15.10;56.30;;;;;;5079528;28;20059;-51
2022/11/17 11:11:27;;;;;;;10.40;0.88;;;15.20;56.20;;;;;;5074993;28;20059;-47
2022/11/17 11:13:58;;;;;;;4.68;1.40;;;15.20;56.20;;;;;;5082104;28;20048;-49
2022/11/17 11:16:29;;;;;;;5.32;1.30;;;15.20;56.20;;;;;;5077191;28;21227;-49
2022/11/17 11:18:57;;;;;;;2.53;1.25;;;15.20;56.20;;;;;;5078518;28;20063;-52
2022/11/17 11:21:41;;;;;;;4.57;0.75;;;15.30;56.20;;;;;;5083401;28;20048;-49
2022/11/17 11:24:17;;;;;;;5.10;1.25;;;15.30;55.70;;;;;;5082210;28;20063;-49
2022/11/17 11:26:59;;;;;;;4.57;0.80;;;15.30;55.50;;;;;;5082679;28;20882;-50
2022/11/17 11:29:33;;;;;;;1.92;0.70;;;15.30;55.50;;;;;;5083549;28;20056;-52
2022/11/17 11:32:28;;;;;;;4.30;0.80;;;15.30;55.70;;;;;;5080671;28;20056;-44
2022/11/17 11:35:33;;;;;;;2.28;1.08;;;15.30;54.90;;;;;;5063067;28;20060;-49
2022/11/17 11:38:15;;;;;;;4.97;0.73;;;15.30;54.70;;;;;;5078167;28;20063;-52
2022/11/17 11:40:54;;;;;;;2.58;0.70;;;15.40;54.60;;;;;;5083971;28;20063;-50
2022/11/17 11:43:32;;;;;;;6.28;1.10;;;15.40;54.70;;;;;;5084001;28;20403;-48
2022/11/17 11:46:08;;;;;;;1.73;0.45;;;15.40;54.40;;;;;;5085287;28;20055;-55
2022/11/17 11:48:39;;;;;;;3.13;0.60;;;15.30;54.50;;;;;;5085454;28;20420;-47
2022/11/17 11:51:14;;;;;;;2.55;1.10;;;15.40;54.50;;;;;;5082536;28;20048;-49
2022/11/17 11:53:48;;;;;;;5.85;0.85;;;15.40;54.40;;;;;;5083993;28;20056;-51
2022/11/17 11:56:22;;;;;;;;;;;15.40;54.40;;;;;;5085590;28;20051;-52
2022/11/17 11:58:54;;;;;;;3.03;0.90;;;15.40;54.70;;;;;;5084937;28;19924;-46
2022/11/17 12:01:23;;;;;;;4.30;1.67;;;15.40;54.40;;;;;;5083582;28;20060;-53
2022/11/17 12:04:01;;;;;;;4.22;1.60;;;15.40;54.20;;;;;;5083447;28;20064;-42
2022/11/17 12:06:40;;;;;;;4.32;1.30;;;15.40;54.00;;;;;;5082139;28;20411;-55
2022/11/17 12:09:38;;;;;;;14.30;3.53;;;15.40;53.70;;;;;;5082071;28;20415;-50
2022/11/17 12:12:15;;;;;;;19.00;3.60;;;15.40;53.80;;;;;;5083933;28;20063;-45
2022/11/17 12:15:10;;;;;;;15.68;2.40;;;15.50;54.00;;;;;;5084744;28;20059;-49
2022/11/17 12:17:52;;;;;;;6.93;1.55;;;15.50;53.80;;;;;;5084459;28;20048;-45
2022/11/17 12:20:52;;;;;;;5.45;1.25;;;15.50;53.80;;;;;;5081867;28;20048;-50
2022/11/17 12:23:39;;;;;;;8.05;1.90;;;15.50;53.80;;;;;;5077634;28;20050;-46
2022/11/17 12:26:07;;;;;;;8.60;1.80;;;15.60;53.70;;;;;;5067675;28;20052;-48
2022/11/17 12:28:36;;;;;;;7.20;1.77;;;15.60;53.70;;;;;;5083084;28;20055;-50
2022/11/17 12:31:06;;;;;;;8.25;2.25;;;15.60;53.50;;;;;;5080540;28;20048;-49
2022/11/17 12:34:14;;;;;;;9.85;1.42;;;15.60;53.30;;;;;;5083032;28;20048;-46
2022/11/17 12:37:18;;;;;;;14.45;2.60;;;15.60;53.00;;;;;;5066049;28;20051;-48
2022/11/17 12:39:58;;;;;;;18.20;3.58;;;15.60;53.00;;;;;;5081454;28;20056;-51
2022/11/17 12:42:26;;;;;;;5.75;2.20;;;15.60;53.00;;;;;;5083059;28;20066;-47
2022/11/17 12:45:02;;;;;;;8.95;2.35;;;15.60;53.20;;;;;;5083720;28;20059;-52
2022/11/17 12:47:32;;;;;;;12.15;2.50;;;15.60;53.10;;;;;;5084031;28;20063;-49
2022/11/17 12:50:42;;;;;;;12.80;2.67;;;15.70;53.10;;;;;;5082452;28;20056;-53
2022/11/17 12:53:48;;;;;;;11.07;2.85;;;15.60;53.10;;;;;;5077838;28;20117;-52
2022/11/17 12:56:47;;;;;;;6.75;2.58;;;15.70;53.00;;;;;;5059848;28;20515;-46
2022/11/17 12:59:32;;;;;;;7.68;1.88;;;15.80;53.00;;;;;;5047236;28;20052;-48
2022/11/17 13:02:10;;;;;;;6.93;2.95;;;15.80;53.20;;;;;;5081174;28;20056;-52
2022/11/17 13:04:45;;;;;;;5.93;2.47;;;15.80;53.10;;;;;;5078114;28;20050;-53
2022/11/17 13:07:19;;;;;;;17.13;3.25;;;15.80;52.90;;;;;;5079277;28;20056;-44
2022/11/17 13:09:51;;;;;;;11.43;3.75;;;15.80;52.80;;;;;;5083372;28;20044;-45
2022/11/17 13:12:22;;;;;;;8.23;2.90;;;15.90;52.60;;;;;;5084039;28;20060;-47
2022/11/17 13:14:55;;;;;;;8.68;2.65;;;15.80;52.40;;;;;;5083612;28;20059;-48
2022/11/17 13:17:31;;;;;;;8.20;2.60;;;15.90;52.50;;;;;;5083906;28;20060;-52
2022/11/17 13:20:12;;;;;;;4.65;1.77;;;15.90;52.40;;;;;;5082684;28;20059;-51
2022/11/17 13:22:39;;;;;;;16.33;3.38;;;15.90;52.50;;;;;;5075736;28;20377;-49
2022/11/17 13:25:21;;;;;;;5.00;2.22;;;15.80;52.00;;;;;;5082007;28;20048;-49
2022/11/17 13:27:48;;;;;;;5.72;1.77;;;15.80;51.80;;;;;;5083292;28;20048;-52
2022/11/17 13:30:22;;;;;;;6.03;1.60;;;15.80;52.20;;;;;;5081497;28;20082;-47
2022/11/17 13:32:50;;;;;;;8.32;2.42;;;15.80;52.00;;;;;;5083293;28;20051;-49
2022/11/17 13:35:25;;;;;;;4.38;1.23;;;15.80;52.00;;;;;;5080221;28;20055;-49
2022/11/17 13:38:04;;;;;;;5.38;1.23;;;15.80;51.80;;;;;;5082824;28;20048;-46
2022/11/17 13:40:33;;;;;;;4.65;0.70;;;15.80;52.00;;;;;;5081526;28;20060;-51